sensor_id;sensor_type;location;lat;lon;timestamp;temperature;humidity
51982;DHT22;37998;53.416;6.730;2023-02-14T00:00:20;4.30;99.90
51982;DHT22;37998;53.416;6.730;2023-02-14T00:02:47;4.20;99.90
51982;DHT22;37998;53.416;6.730;2023-02-14T00:05:13;4.20;99.90
51982;DHT22;37998;53.416;6.730;2023-02-14T00:07:38;4.30;99.90
51982;DHT22;37998;53.416;6.730;2023-02-14T00:10:04;4.40;99.90
51982;DHT22;37998;53.416;6.730;2023-02-14T00:12:30;4.20;99.90
51982;DHT22;37998;53.416;6.730;2023-02-14T00:14:56;4.20;99.90
51982;DHT22;37998;53.416;6.730;2023-02-14T00:17:40;4.30;99.90
51982;DHT22;37998;53.416;6.730;2023-02-14T00:20:06;4.30;99.90
51982;DHT22;37998;53.416;6.730;2023-02-14T00:22:32;4.20;99.90
51982;DHT22;37998;53.416;6.730;2023-02-14T00:24:58;4.20;99.90
51982;DHT22;37998;53.416;6.730;2023-02-14T00:27:23;4.20;99.90
51982;DHT22;37998;53.416;6.730;2023-02-14T00:29:49;4.20;99.90
51982;DHT22;37998;53.416;6.730;2023-02-14T00:32:14;4.20;99.90
51982;DHT22;37998;53.416;6.730;2023-02-14T00:34:40;4.10;99.90
51982;DHT22;37998;53.416;6.730;2023-02-14T00:37:06;4.10;99.90
51982;DHT22;37998;53.416;6.730;2023-02-14T00:39:31;4.10;99.90
51982;DHT22;37998;53.416;6.730;2023-02-14T00:41:57;4.10;99.90
51982;DHT22;37998;53.416;6.730;2023-02-14T00:44:23;4.00;99.90
51982;DHT22;37998;53.416;6.730;2023-02-14T00:46:49;4.00;99.90
51982;DHT22;37998;53.416;6.730;2023-02-14T00:49:15;4.00;99.90
51982;DHT22;37998;53.416;6.730;2023-02-14T00:51:41;5.00;99.90
51982;DHT22;37998;53.416;6.730;2023-02-14T00:54:06;3.90;99.90
51982;DHT22;37998;53.416;6.730;2023-02-14T00:56:32;3.90;99.90
51982;DHT22;37998;53.416;6.730;2023-02-14T00:58:58;3.90;99.90
51982;DHT22;37998;53.416;6.730;2023-02-14T01:01:24;3.90;99.90
51982;DHT22;37998;53.416;6.730;2023-02-14T01:03:49;3.80;99.90
51982;DHT22;37998;53.416;6.730;2023-02-14T01:06:15;3.80;99.90
51982;DHT22;37998;53.416;6.730;2023-02-14T01:08:41;3.80;99.90
51982;DHT22;37998;53.416;6.730;2023-02-14T01:13:33;3.80;99.90
51982;DHT22;37998;53.416;6.730;2023-02-14T01:16:06;3.70;99.90
51982;DHT22;37998;53.416;6.730;2023-02-14T01:18:32;3.70;99.90
51982;DHT22;37998;53.416;6.730;2023-02-14T01:21:13;3.70;99.90
51982;DHT22;37998;53.416;6.730;2023-02-14T01:23:40;3.70;99.90
51982;DHT22;37998;53.416;6.730;2023-02-14T01:26:06;3.70;99.90
51982;DHT22;37998;53.416;6.730;2023-02-14T01:28:33;3.70;99.90
51982;DHT22;37998;53.416;6.730;2023-02-14T01:31:11;3.70;99.90
51982;DHT22;37998;53.416;6.730;2023-02-14T01:33:37;3.80;99.90
51982;DHT22;37998;53.416;6.730;2023-02-14T01:36:03;3.90;99.90
51982;DHT22;37998;53.416;6.730;2023-02-14T01:38:29;3.80;99.90
51982;DHT22;37998;53.416;6.730;2023-02-14T01:40:55;3.90;99.90
51982;DHT22;37998;53.416;6.730;2023-02-14T01:43:22;3.90;99.90
51982;DHT22;37998;53.416;6.730;2023-02-14T01:45:47;3.90;99.90
51982;DHT22;37998;53.416;6.730;2023-02-14T01:48:13;3.90;99.90
51982;DHT22;37998;53.416;6.730;2023-02-14T01:50:42;3.90;99.90
51982;DHT22;37998;53.416;6.730;2023-02-14T01:53:14;3.90;99.90
51982;DHT22;37998;53.416;6.730;2023-02-14T01:55:45;3.90;99.90
51982;DHT22;37998;53.416;6.730;2023-02-14T01:58:20;3.90;99.90
51982;DHT22;37998;53.416;6.730;2023-02-14T02:00:49;3.90;99.90
51982;DHT22;37998;53.416;6.730;2023-02-14T02:03:40;3.90;99.90
51982;DHT22;37998;53.416;6.730;2023-02-14T02:06:32;3.90;99.90
51982;DHT22;37998;53.416;6.730;2023-02-14T02:09:22;3.90;99.90
51982;DHT22;37998;53.416;6.730;2023-02-14T02:11:49;3.90;99.90
51982;DHT22;37998;53.416;6.730;2023-02-14T02:14:17;3.90;99.90
51982;DHT22;37998;53.416;6.730;2023-02-14T02:16:46;3.90;99.90
51982;DHT22;37998;53.416;6.730;2023-02-14T02:19:31;3.90;99.90
51982;DHT22;37998;53.416;6.730;2023-02-14T02:22:29;3.90;99.90
51982;DHT22;37998;53.416;6.730;2023-02-14T02:25:43;3.90;99.90
51982;DHT22;37998;53.416;6.730;2023-02-14T02:33:32;3.80;99.90
51982;DHT22;37998;53.416;6.730;2023-02-14T02:39:21;3.70;99.90
51982;DHT22;37998;53.416;6.730;2023-02-14T02:47:37;3.70;99.90
51982;DHT22;37998;53.416;6.730;2023-02-14T02:50:17;3.70;99.90
51982;DHT22;37998;53.416;6.730;2023-02-14T02:59:07;3.50;99.90
51982;DHT22;37998;53.416;6.730;2023-02-14T03:01:48;3.50;99.90
51982;DHT22;37998;53.416;6.730;2023-02-14T03:04:15;3.50;99.90
51982;DHT22;37998;53.416;6.730;2023-02-14T03:07:01;3.50;99.90
51982;DHT22;37998;53.416;6.730;2023-02-14T03:09:58;3.40;99.90
51982;DHT22;37998;53.416;6.730;2023-02-14T03:17:45;3.30;99.90
51982;DHT22;37998;53.416;6.730;2023-02-14T03:25:45;3.30;99.90
51982;DHT22;37998;53.416;6.730;2023-02-14T03:28:36;3.30;99.90
51982;DHT22;37998;53.416;6.730;2023-02-14T03:31:20;3.30;99.90
51982;DHT22;37998;53.416;6.730;2023-02-14T03:36:21;3.30;99.90
51982;DHT22;37998;53.416;6.730;2023-02-14T03:39:02;3.30;99.90
51982;DHT22;37998;53.416;6.730;2023-02-14T03:41:35;3.20;99.90
51982;DHT22;37998;53.416;6.730;2023-02-14T03:44:04;3.20;99.90
51982;DHT22;37998;53.416;6.730;2023-02-14T03:46:50;3.20;99.90
51982;DHT22;37998;53.416;6.730;2023-02-14T03:49:22;3.20;99.90
51982;DHT22;37998;53.416;6.730;2023-02-14T03:51:53;3.20;99.90
51982;DHT22;37998;53.416;6.730;2023-02-14T03:54:22;3.20;99.90
51982;DHT22;37998;53.416;6.730;2023-02-14T03:56:52;3.20;99.90
51982;DHT22;37998;53.416;6.730;2023-02-14T03:59:23;3.20;99.90
51982;DHT22;37998;53.416;6.730;2023-02-14T04:04:39;3.20;99.90
51982;DHT22;37998;53.416;6.730;2023-02-14T04:07:09;3.20;99.90
51982;DHT22;37998;53.416;6.730;2023-02-14T04:09:35;3.20;99.90
51982;DHT22;37998;53.416;6.730;2023-02-14T04:12:01;3.20;99.90
51982;DHT22;37998;53.416;6.730;2023-02-14T04:14:26;3.20;99.90
51982;DHT22;37998;53.416;6.730;2023-02-14T04:16:54;3.20;99.90
51982;DHT22;37998;53.416;6.730;2023-02-14T04:19:43;3.10;99.90
51982;DHT22;37998;53.416;6.730;2023-02-14T04:22:08;3.10;99.90
51982;DHT22;37998;53.416;6.730;2023-02-14T04:24:34;3.20;99.90
51982;DHT22;37998;53.416;6.730;2023-02-14T04:26:59;3.20;99.90
51982;DHT22;37998;53.416;6.730;2023-02-14T04:29:47;3.20;99.90
51982;DHT22;37998;53.416;6.730;2023-02-14T04:32:17;3.20;99.90
51982;DHT22;37998;53.416;6.730;2023-02-14T04:34:43;3.10;99.90
51982;DHT22;37998;53.416;6.730;2023-02-14T04:37:09;3.10;99.90
51982;DHT22;37998;53.416;6.730;2023-02-14T04:39:35;3.10;99.90
51982;DHT22;37998;53.416;6.730;2023-02-14T04:42:02;3.10;99.90
51982;DHT22;37998;53.416;6.730;2023-02-14T04:44:28;3.10;99.90
51982;DHT22;37998;53.416;6.730;2023-02-14T04:46:54;3.10;99.90
51982;DHT22;37998;53.416;6.730;2023-02-14T04:49:19;3.10;99.90
51982;DHT22;37998;53.416;6.730;2023-02-14T04:51:45;3.10;99.90
51982;DHT22;37998;53.416;6.730;2023-02-14T04:54:11;3.10;99.90
51982;DHT22;37998;53.416;6.730;2023-02-14T04:56:37;3.00;99.90
51982;DHT22;37998;53.416;6.730;2023-02-14T04:59:03;3.00;99.90
51982;DHT22;37998;53.416;6.730;2023-02-14T05:01:29;3.00;99.90
51982;DHT22;37998;53.416;6.730;2023-02-14T05:03:54;3.00;99.90
51982;DHT22;37998;53.416;6.730;2023-02-14T05:06:20;2.90;99.90
51982;DHT22;37998;53.416;6.730;2023-02-14T05:08:45;3.00;99.90
51982;DHT22;37998;53.416;6.730;2023-02-14T05:11:11;3.00;99.90
51982;DHT22;37998;53.416;6.730;2023-02-14T05:13:37;3.00;99.90
51982;DHT22;37998;53.416;6.730;2023-02-14T05:16:03;3.00;99.90
51982;DHT22;37998;53.416;6.730;2023-02-14T05:18:28;3.00;99.90
51982;DHT22;37998;53.416;6.730;2023-02-14T05:20:54;3.00;99.90
51982;DHT22;37998;53.416;6.730;2023-02-14T05:23:23;3.00;99.90
51982;DHT22;37998;53.416;6.730;2023-02-14T05:25:50;3.10;99.90
51982;DHT22;37998;53.416;6.730;2023-02-14T05:28:17;3.00;99.90
51982;DHT22;37998;53.416;6.730;2023-02-14T05:30:43;3.00;99.90
51982;DHT22;37998;53.416;6.730;2023-02-14T05:33:09;3.00;99.90
51982;DHT22;37998;53.416;6.730;2023-02-14T05:35:34;3.00;99.90
51982;DHT22;37998;53.416;6.730;2023-02-14T05:38:00;3.00;99.90
51982;DHT22;37998;53.416;6.730;2023-02-14T05:40:26;2.90;99.90
51982;DHT22;37998;53.416;6.730;2023-02-14T05:42:53;2.90;99.90
51982;DHT22;37998;53.416;6.730;2023-02-14T05:45:20;2.90;99.90
51982;DHT22;37998;53.416;6.730;2023-02-14T05:47:47;3.00;99.90
51982;DHT22;37998;53.416;6.730;2023-02-14T05:50:13;2.90;99.90
51982;DHT22;37998;53.416;6.730;2023-02-14T05:52:39;2.90;99.90
51982;DHT22;37998;53.416;6.730;2023-02-14T05:55:05;2.90;99.90
51982;DHT22;37998;53.416;6.730;2023-02-14T05:57:31;2.80;99.90
51982;DHT22;37998;53.416;6.730;2023-02-14T05:59:56;2.80;99.90
51982;DHT22;37998;53.416;6.730;2023-02-14T06:02:22;2.80;99.90
51982;DHT22;37998;53.416;6.730;2023-02-14T06:04:48;2.80;99.90
51982;DHT22;37998;53.416;6.730;2023-02-14T06:07:13;2.80;99.90
51982;DHT22;37998;53.416;6.730;2023-02-14T06:09:39;2.80;99.90
51982;DHT22;37998;53.416;6.730;2023-02-14T06:12:05;2.80;99.90
51982;DHT22;37998;53.416;6.730;2023-02-14T06:14:31;2.80;99.90
51982;DHT22;37998;53.416;6.730;2023-02-14T06:16:56;3.00;99.90
51982;DHT22;37998;53.416;6.730;2023-02-14T06:19:22;2.80;99.90
51982;DHT22;37998;53.416;6.730;2023-02-14T06:21:48;2.80;99.90
51982;DHT22;37998;53.416;6.730;2023-02-14T06:24:13;2.80;99.90
51982;DHT22;37998;53.416;6.730;2023-02-14T06:26:39;2.80;99.90
51982;DHT22;37998;53.416;6.730;2023-02-14T06:29:05;2.80;99.90
51982;DHT22;37998;53.416;6.730;2023-02-14T06:31:30;2.80;99.90
51982;DHT22;37998;53.416;6.730;2023-02-14T06:33:56;2.80;99.90
51982;DHT22;37998;53.416;6.730;2023-02-14T06:36:22;2.80;99.90
51982;DHT22;37998;53.416;6.730;2023-02-14T06:38:48;2.80;99.90
51982;DHT22;37998;53.416;6.730;2023-02-14T06:41:15;2.80;99.90
51982;DHT22;37998;53.416;6.730;2023-02-14T06:43:42;2.80;99.90
51982;DHT22;37998;53.416;6.730;2023-02-14T06:46:08;2.80;99.90
51982;DHT22;37998;53.416;6.730;2023-02-14T06:48:35;2.80;99.90
51982;DHT22;37998;53.416;6.730;2023-02-14T06:51:01;2.80;99.90
51982;DHT22;37998;53.416;6.730;2023-02-14T06:53:27;2.80;99.90
51982;DHT22;37998;53.416;6.730;2023-02-14T06:55:52;2.80;99.90
51982;DHT22;37998;53.416;6.730;2023-02-14T06:58:18;2.80;99.90
51982;DHT22;37998;53.416;6.730;2023-02-14T07:00:45;2.80;99.90
51982;DHT22;37998;53.416;6.730;2023-02-14T07:03:11;2.90;99.90
51982;DHT22;37998;53.416;6.730;2023-02-14T07:05:36;2.90;99.90
51982;DHT22;37998;53.416;6.730;2023-02-14T07:08:02;2.90;99.90
51982;DHT22;37998;53.416;6.730;2023-02-14T07:10:28;2.90;99.90
51982;DHT22;37998;53.416;6.730;2023-02-14T07:12:54;2.90;99.90
51982;DHT22;37998;53.416;6.730;2023-02-14T07:15:19;2.90;99.90
51982;DHT22;37998;53.416;6.730;2023-02-14T07:17:45;2.90;99.90
51982;DHT22;37998;53.416;6.730;2023-02-14T07:20:11;2.90;99.90
51982;DHT22;37998;53.416;6.730;2023-02-14T07:22:37;2.90;99.90
51982;DHT22;37998;53.416;6.730;2023-02-14T07:25:05;2.90;99.90
51982;DHT22;37998;53.416;6.730;2023-02-14T07:27:31;3.00;99.90
51982;DHT22;37998;53.416;6.730;2023-02-14T07:29:57;3.00;99.90
51982;DHT22;37998;53.416;6.730;2023-02-14T07:32:23;3.00;99.90
51982;DHT22;37998;53.416;6.730;2023-02-14T07:34:49;3.00;99.90
51982;DHT22;37998;53.416;6.730;2023-02-14T07:37:15;3.00;99.90
51982;DHT22;37998;53.416;6.730;2023-02-14T07:39:42;3.00;99.90
51982;DHT22;37998;53.416;6.730;2023-02-14T07:42:08;3.00;99.90
51982;DHT22;37998;53.416;6.730;2023-02-14T07:44:35;3.00;99.90
51982;DHT22;37998;53.416;6.730;2023-02-14T07:47:04;3.00;99.90
51982;DHT22;37998;53.416;6.730;2023-02-14T07:49:30;3.10;99.90
51982;DHT22;37998;53.416;6.730;2023-02-14T07:51:55;3.00;99.90
51982;DHT22;37998;53.416;6.730;2023-02-14T07:54:21;3.30;99.90
51982;DHT22;37998;53.416;6.730;2023-02-14T07:56:47;3.80;99.90
51982;DHT22;37998;53.416;6.730;2023-02-14T07:59:12;4.30;99.90
51982;DHT22;37998;53.416;6.730;2023-02-14T08:01:38;4.70;99.90
51982;DHT22;37998;53.416;6.730;2023-02-14T08:04:04;5.20;99.90
51982;DHT22;37998;53.416;6.730;2023-02-14T08:06:29;5.40;99.90
51982;DHT22;37998;53.416;6.730;2023-02-14T08:08:55;5.60;99.90
51982;DHT22;37998;53.416;6.730;2023-02-14T08:11:20;5.80;99.90
51982;DHT22;37998;53.416;6.730;2023-02-14T08:14:05;6.10;99.90
51982;DHT22;37998;53.416;6.730;2023-02-14T08:16:30;6.20;99.90
51982;DHT22;37998;53.416;6.730;2023-02-14T08:19:00;6.00;99.90
51982;DHT22;37998;53.416;6.730;2023-02-14T08:21:26;5.60;99.90
51982;DHT22;37998;53.416;6.730;2023-02-14T08:23:52;5.20;99.90
51982;DHT22;37998;53.416;6.730;2023-02-14T08:26:17;4.00;99.90
51982;DHT22;37998;53.416;6.730;2023-02-14T08:28:43;4.60;99.90
51982;DHT22;37998;53.416;6.730;2023-02-14T08:31:09;4.40;99.90
51982;DHT22;37998;53.416;6.730;2023-02-14T08:33:38;4.30;99.90
51982;DHT22;37998;53.416;6.730;2023-02-14T08:36:04;4.20;99.90
51982;DHT22;37998;53.416;6.730;2023-02-14T08:38:29;4.20;99.90
51982;DHT22;37998;53.416;6.730;2023-02-14T08:40:59;4.20;99.90
51982;DHT22;37998;53.416;6.730;2023-02-14T08:43:26;4.20;99.90
51982;DHT22;37998;53.416;6.730;2023-02-14T08:45:52;4.20;99.90
51982;DHT22;37998;53.416;6.730;2023-02-14T08:48:18;4.20;99.90
51982;DHT22;37998;53.416;6.730;2023-02-14T08:50:44;4.20;99.90
51982;DHT22;37998;53.416;6.730;2023-02-14T08:53:11;4.20;99.90
51982;DHT22;37998;53.416;6.730;2023-02-14T08:55:37;4.20;99.90
51982;DHT22;37998;53.416;6.730;2023-02-14T08:58:03;4.30;99.90
51982;DHT22;37998;53.416;6.730;2023-02-14T09:00:30;4.50;99.90
51982;DHT22;37998;53.416;6.730;2023-02-14T09:02:56;4.40;99.90
51982;DHT22;37998;53.416;6.730;2023-02-14T09:05:21;4.50;99.90
51982;DHT22;37998;53.416;6.730;2023-02-14T09:07:50;4.50;99.90
51982;DHT22;37998;53.416;6.730;2023-02-14T09:10:17;4.60;99.90
51982;DHT22;37998;53.416;6.730;2023-02-14T09:12:45;4.60;99.90
51982;DHT22;37998;53.416;6.730;2023-02-14T09:15:11;4.60;99.90
51982;DHT22;37998;53.416;6.730;2023-02-14T09:17:38;4.70;99.90
51982;DHT22;37998;53.416;6.730;2023-02-14T09:20:05;4.70;99.90
51982;DHT22;37998;53.416;6.730;2023-02-14T09:22:32;4.80;99.90
51982;DHT22;37998;53.416;6.730;2023-02-14T09:24:58;4.90;99.90
51982;DHT22;37998;53.416;6.730;2023-02-14T09:27:24;4.90;99.90
51982;DHT22;37998;53.416;6.730;2023-02-14T09:29:50;5.00;99.90
51982;DHT22;37998;53.416;6.730;2023-02-14T09:32:16;5.00;99.90
51982;DHT22;37998;53.416;6.730;2023-02-14T09:34:42;5.00;99.90
51982;DHT22;37998;53.416;6.730;2023-02-14T09:37:26;5.10;99.90
51982;DHT22;37998;53.416;6.730;2023-02-14T09:40:15;5.10;99.90
51982;DHT22;37998;53.416;6.730;2023-02-14T09:45:33;5.20;99.90
51982;DHT22;37998;53.416;6.730;2023-02-14T09:48:28;5.20;99.90
51982;DHT22;37998;53.416;6.730;2023-02-14T09:50:58;5.20;99.90
51982;DHT22;37998;53.416;6.730;2023-02-14T09:53:27;5.30;99.90
51982;DHT22;37998;53.416;6.730;2023-02-14T09:59:02;5.30;99.90
51982;DHT22;37998;53.416;6.730;2023-02-14T10:01:41;5.30;99.90
51982;DHT22;37998;53.416;6.730;2023-02-14T10:04:31;5.40;99.90
51982;DHT22;37998;53.416;6.730;2023-02-14T10:09:39;5.60;99.90
51982;DHT22;37998;53.416;6.730;2023-02-14T10:12:33;5.60;99.90
51982;DHT22;37998;53.416;6.730;2023-02-14T10:15:06;5.70;99.90
51982;DHT22;37998;53.416;6.730;2023-02-14T10:17:43;5.70;99.90
51982;DHT22;37998;53.416;6.730;2023-02-14T10:20:31;5.80;99.90
51982;DHT22;37998;53.416;6.730;2023-02-14T10:25:43;6.00;99.90
51982;DHT22;37998;53.416;6.730;2023-02-14T10:28:12;6.10;99.90
51982;DHT22;37998;53.416;6.730;2023-02-14T10:30:49;6.20;99.90
51982;DHT22;37998;53.416;6.730;2023-02-14T10:33:18;6.20;99.90
51982;DHT22;37998;53.416;6.730;2023-02-14T10:35:50;6.30;99.90
51982;DHT22;37998;53.416;6.730;2023-02-14T10:46:56;6.80;99.90
51982;DHT22;37998;53.416;6.730;2023-02-14T10:52:31;6.90;99.90
51982;DHT22;37998;53.416;6.730;2023-02-14T10:55:04;7.00;99.90
51982;DHT22;37998;53.416;6.730;2023-02-14T10:57:37;7.10;99.90
51982;DHT22;37998;53.416;6.730;2023-02-14T11:00:10;7.10;99.90
51982;DHT22;37998;53.416;6.730;2023-02-14T11:02:43;7.20;99.90
51982;DHT22;37998;53.416;6.730;2023-02-14T11:05:33;7.30;99.90
51982;DHT22;37998;53.416;6.730;2023-02-14T11:07:59;7.40;99.90
51982;DHT22;37998;53.416;6.730;2023-02-14T11:10:29;7.40;99.90
51982;DHT22;37998;53.416;6.730;2023-02-14T11:12:56;7.50;99.90
51982;DHT22;37998;53.416;6.730;2023-02-14T11:15:30;7.50;99.90
51982;DHT22;37998;53.416;6.730;2023-02-14T11:18:23;7.60;99.90
51982;DHT22;37998;53.416;6.730;2023-02-14T11:21:11;7.70;99.90
51982;DHT22;37998;53.416;6.730;2023-02-14T11:23:42;7.70;99.90
51982;DHT22;37998;53.416;6.730;2023-02-14T11:26:24;7.70;99.90
51982;DHT22;37998;53.416;6.730;2023-02-14T11:29:00;7.80;99.90
51982;DHT22;37998;53.416;6.730;2023-02-14T11:33:52;7.90;99.90
51982;DHT22;37998;53.416;6.730;2023-02-14T11:36:19;8.00;99.90
51982;DHT22;37998;53.416;6.730;2023-02-14T11:38:55;8.00;99.90
51982;DHT22;37998;53.416;6.730;2023-02-14T11:41:22;8.10;99.90
51982;DHT22;37998;53.416;6.730;2023-02-14T11:43:48;8.10;99.90
51982;DHT22;37998;53.416;6.730;2023-02-14T11:49:03;8.20;99.90
51982;DHT22;37998;53.416;6.730;2023-02-14T11:51:35;8.20;99.90
51982;DHT22;37998;53.416;6.730;2023-02-14T11:54:03;8.30;99.90
51982;DHT22;37998;53.416;6.730;2023-02-14T11:56:49;8.30;99.90
51982;DHT22;37998;53.416;6.730;2023-02-14T11:59:32;8.40;99.90
51982;DHT22;37998;53.416;6.730;2023-02-14T12:02:03;8.40;99.90
51982;DHT22;37998;53.416;6.730;2023-02-14T12:04:39;8.50;99.90
51982;DHT22;37998;53.416;6.730;2023-02-14T12:07:32;8.50;99.90
51982;DHT22;37998;53.416;6.730;2023-02-14T12:20:54;8.70;99.90
51982;DHT22;37998;53.416;6.730;2023-02-14T12:23:43;8.70;99.90
51982;DHT22;37998;53.416;6.730;2023-02-14T12:26:37;8.80;99.90
51982;DHT22;37998;53.416;6.730;2023-02-14T12:29:08;8.80;99.90
51982;DHT22;37998;53.416;6.730;2023-02-14T12:31:36;8.90;99.90
51982;DHT22;37998;53.416;6.730;2023-02-14T12:34:02;8.90;99.90
51982;DHT22;37998;53.416;6.730;2023-02-14T12:47:37;9.20;99.90
51982;DHT22;37998;53.416;6.730;2023-02-14T12:50:43;9.20;99.90
51982;DHT22;37998;53.416;6.730;2023-02-14T12:58:25;9.30;99.90
51982;DHT22;37998;53.416;6.730;2023-02-14T13:09:15;9.40;99.90
51982;DHT22;37998;53.416;6.730;2023-02-14T13:15:02;9.50;99.90
51982;DHT22;37998;53.416;6.730;2023-02-14T13:17:41;9.60;99.90
51982;DHT22;37998;53.416;6.730;2023-02-14T13:22:50;9.70;99.90
51982;DHT22;37998;53.416;6.730;2023-02-14T13:27:46;9.70;99.90
51982;DHT22;37998;53.416;6.730;2023-02-14T13:30:41;9.80;99.90
51982;DHT22;37998;53.416;6.730;2023-02-14T13:35:39;9.80;99.90
51982;DHT22;37998;53.416;6.730;2023-02-14T13:38:07;9.80;99.90
51982;DHT22;37998;53.416;6.730;2023-02-14T13:40:37;9.80;99.90
51982;DHT22;37998;53.416;6.730;2023-02-14T13:43:04;9.90;99.90
51982;DHT22;37998;53.416;6.730;2023-02-14T13:48:19;9.90;99.90
51982;DHT22;37998;53.416;6.730;2023-02-14T13:51:06;9.90;99.90
51982;DHT22;37998;53.416;6.730;2023-02-14T13:58:40;10.00;99.90
51982;DHT22;37998;53.416;6.730;2023-02-14T14:01:39;10.00;99.90
51982;DHT22;37998;53.416;6.730;2023-02-14T14:17:35;10.10;99.90
51982;DHT22;37998;53.416;6.730;2023-02-14T14:20:47;10.00;99.90
51982;DHT22;37998;53.416;6.730;2023-02-14T14:22:54;10.00;99.90
51982;DHT22;37998;53.416;6.730;2023-02-14T14:25:39;10.00;99.90
51982;DHT22;37998;53.416;6.730;2023-02-14T14:28:19;10.10;99.90
51982;DHT22;37998;53.416;6.730;2023-02-14T14:30:46;10.00;99.90
51982;DHT22;37998;53.416;6.730;2023-02-14T14:33:33;10.00;99.90
51982;DHT22;37998;53.416;6.730;2023-02-14T14:36:05;10.00;99.90
51982;DHT22;37998;53.416;6.730;2023-02-14T14:38:34;10.00;99.90
51982;DHT22;37998;53.416;6.730;2023-02-14T14:41:10;10.10;99.90
51982;DHT22;37998;53.416;6.730;2023-02-14T14:43:37;10.10;99.90
51982;DHT22;37998;53.416;6.730;2023-02-14T14:46:08;10.10;99.90
51982;DHT22;37998;53.416;6.730;2023-02-14T14:48:47;10.20;99.90
51982;DHT22;37998;53.416;6.730;2023-02-14T14:51:29;10.20;99.90
51982;DHT22;37998;53.416;6.730;2023-02-14T14:54:04;10.10;99.90
51982;DHT22;37998;53.416;6.730;2023-02-14T14:56:36;10.10;99.90
51982;DHT22;37998;53.416;6.730;2023-02-14T14:59:38;10.10;99.90
51982;DHT22;37998;53.416;6.730;2023-02-14T15:02:24;10.10;99.90
51982;DHT22;37998;53.416;6.730;2023-02-14T15:04:51;10.10;99.90
51982;DHT22;37998;53.416;6.730;2023-02-14T15:07:19;10.00;99.90
51982;DHT22;37998;53.416;6.730;2023-02-14T15:09:46;10.00;99.90
51982;DHT22;37998;53.416;6.730;2023-02-14T15:12:18;10.10;99.90
51982;DHT22;37998;53.416;6.730;2023-02-14T15:15:04;10.20;99.90
51982;DHT22;37998;53.416;6.730;2023-02-14T15:17:31;10.10;99.90
51982;DHT22;37998;53.416;6.730;2023-02-14T15:20:00;10.20;99.90
51982;DHT22;37998;53.416;6.730;2023-02-14T15:22:31;10.10;99.90
51982;DHT22;37998;53.416;6.730;2023-02-14T15:24:58;10.10;99.90
51982;DHT22;37998;53.416;6.730;2023-02-14T15:27:26;10.10;99.90
51982;DHT22;37998;53.416;6.730;2023-02-14T15:30:02;10.00;99.90
51982;DHT22;37998;53.416;6.730;2023-02-14T15:32:33;10.00;99.90
51982;DHT22;37998;53.416;6.730;2023-02-14T15:35:05;10.00;99.90
51982;DHT22;37998;53.416;6.730;2023-02-14T15:37:31;10.00;99.90
51982;DHT22;37998;53.416;6.730;2023-02-14T15:39:58;10.00;99.90
51982;DHT22;37998;53.416;6.730;2023-02-14T15:42:32;9.90;99.90
51982;DHT22;37998;53.416;6.730;2023-02-14T15:47:57;9.90;99.90
51982;DHT22;37998;53.416;6.730;2023-02-14T15:50:27;9.90;99.90
51982;DHT22;37998;53.416;6.730;2023-02-14T15:53:15;9.90;99.90
51982;DHT22;37998;53.416;6.730;2023-02-14T15:55:44;9.80;99.90
51982;DHT22;37998;53.416;6.730;2023-02-14T15:58:18;9.80;99.90
51982;DHT22;37998;53.416;6.730;2023-02-14T16:00:48;9.80;99.90
51982;DHT22;37998;53.416;6.730;2023-02-14T16:03:21;9.70;99.90
51982;DHT22;37998;53.416;6.730;2023-02-14T16:05:48;9.70;99.90
51982;DHT22;37998;53.416;6.730;2023-02-14T16:08:35;9.70;99.90
51982;DHT22;37998;53.416;6.730;2023-02-14T16:11:32;9.70;99.90
51982;DHT22;37998;53.416;6.730;2023-02-14T16:16:57;9.60;99.90
51982;DHT22;37998;53.416;6.730;2023-02-14T16:19:33;9.50;99.90
51982;DHT22;37998;53.416;6.730;2023-02-14T16:21:59;9.50;99.90
51982;DHT22;37998;53.416;6.730;2023-02-14T16:24:25;9.40;99.90
51982;DHT22;37998;53.416;6.730;2023-02-14T16:26:51;9.40;99.90
51982;DHT22;37998;53.416;6.730;2023-02-14T16:29:18;9.30;99.90
51982;DHT22;37998;53.416;6.730;2023-02-14T16:31:53;9.30;99.90
51982;DHT22;37998;53.416;6.730;2023-02-14T16:34:20;9.20;99.90
51982;DHT22;37998;53.416;6.730;2023-02-14T16:36:46;9.20;99.90
51982;DHT22;37998;53.416;6.730;2023-02-14T16:39:17;9.10;99.90
51982;DHT22;37998;53.416;6.730;2023-02-14T16:41:45;9.10;99.90
51982;DHT22;37998;53.416;6.730;2023-02-14T16:44:16;9.00;99.90
51982;DHT22;37998;53.416;6.730;2023-02-14T16:46:43;9.00;99.90
51982;DHT22;37998;53.416;6.730;2023-02-14T16:49:10;8.90;99.90
51982;DHT22;37998;53.416;6.730;2023-02-14T16:51:37;8.90;99.90
51982;DHT22;37998;53.416;6.730;2023-02-14T16:54:06;8.80;99.90
51982;DHT22;37998;53.416;6.730;2023-02-14T16:57:00;8.80;99.90
51982;DHT22;37998;53.416;6.730;2023-02-14T16:59:26;8.70;99.90
51982;DHT22;37998;53.416;6.730;2023-02-14T17:01:52;8.60;99.90
51982;DHT22;37998;53.416;6.730;2023-02-14T17:04:18;8.50;99.90
51982;DHT22;37998;53.416;6.730;2023-02-14T17:06:51;8.50;99.90
51982;DHT22;37998;53.416;6.730;2023-02-14T17:09:21;8.50;99.90
51982;DHT22;37998;53.416;6.730;2023-02-14T17:11:49;8.40;99.90
51982;DHT22;37998;53.416;6.730;2023-02-14T17:14:26;8.40;99.90
51982;DHT22;37998;53.416;6.730;2023-02-14T17:16:53;8.40;99.90
51982;DHT22;37998;53.416;6.730;2023-02-14T17:19:19;8.30;99.90
51982;DHT22;37998;53.416;6.730;2023-02-14T17:21:45;8.20;99.90
51982;DHT22;37998;53.416;6.730;2023-02-14T17:24:11;8.20;99.90
51982;DHT22;37998;53.416;6.730;2023-02-14T17:26:37;8.20;99.90
51982;DHT22;37998;53.416;6.730;2023-02-14T17:29:03;8.10;99.90
51982;DHT22;37998;53.416;6.730;2023-02-14T17:31:28;8.10;99.90
51982;DHT22;37998;53.416;6.730;2023-02-14T17:33:54;8.00;99.90
51982;DHT22;37998;53.416;6.730;2023-02-14T17:36:20;8.10;99.90
51982;DHT22;37998;53.416;6.730;2023-02-14T17:38:47;8.00;99.90
51982;DHT22;37998;53.416;6.730;2023-02-14T17:41:15;8.00;99.90
51982;DHT22;37998;53.416;6.730;2023-02-14T17:43:41;8.00;99.90
51982;DHT22;37998;53.416;6.730;2023-02-14T17:46:07;7.90;99.90
51982;DHT22;37998;53.416;6.730;2023-02-14T17:48:33;7.90;99.90
51982;DHT22;37998;53.416;6.730;2023-02-14T17:51:03;7.80;99.90
51982;DHT22;37998;53.416;6.730;2023-02-14T17:53:29;7.80;99.90
51982;DHT22;37998;53.416;6.730;2023-02-14T17:55:55;7.80;99.90
51982;DHT22;37998;53.416;6.730;2023-02-14T17:58:20;7.80;99.90
51982;DHT22;37998;53.416;6.730;2023-02-14T18:00:46;7.80;99.90
51982;DHT22;37998;53.416;6.730;2023-02-14T18:03:12;7.80;99.90
51982;DHT22;37998;53.416;6.730;2023-02-14T18:05:38;7.70;99.90
51982;DHT22;37998;53.416;6.730;2023-02-14T18:08:03;7.70;99.90
51982;DHT22;37998;53.416;6.730;2023-02-14T18:10:29;7.70;99.90
51982;DHT22;37998;53.416;6.730;2023-02-14T18:12:55;7.70;99.90
51982;DHT22;37998;53.416;6.730;2023-02-14T18:15:20;7.70;99.90
51982;DHT22;37998;53.416;6.730;2023-02-14T18:17:49;7.60;99.90
51982;DHT22;37998;53.416;6.730;2023-02-14T18:20:15;7.60;99.90
51982;DHT22;37998;53.416;6.730;2023-02-14T18:22:41;7.60;99.90
51982;DHT22;37998;53.416;6.730;2023-02-14T18:25:07;7.50;99.90